CYCS

Chesterfield Inlet Airport

Chesterfield Inlet, Canada
METAR CYCS 182300Z 07008KT 15SM -SN SCT014 OVC046 M22/M25 A2988 RMK SC3SC5 -21.5/-24.6/TR/43 MUCH LOOSE LAST STFD OBS/NXT 191300Z SLP121
Observed Flight Rules
Jan-18 @ 23:00 UTC (5 hours ago) Visual Flight Rules
Wind Visibility Clouds Conditions
70° at 8 knots 15 miles
  • Scattered at 1,400' AGL
  • Overcast at 4,600' AGL
  • Light Snow
Temperatures Readings
Current -22°C / -8°F
Dewpoint -25°C / -13°F
Humidity 77%
Altimeter 29.88" Hg
Pressure 1012.1 hPa
Elevation 11
METAR CYCS 182300Z 07008KT 15SM -SN SCT014 OVC046 M22/M25 A2988 RMK SC3SC5 -21.5/-24.6/TR/43 MUCH LOOSE LAST STFD OBS/NXT 191300Z SLP121
Observed Flight Rules
Jan-18 @ 23:00 UTC
(5 hours ago)
VFR
Wind Visibility
70° at 8 knots 15 miles
Clouds
  • Scattered at 1,400' AGL
  • Overcast at 4,600' AGL
Conditions
  • Light Snow
Temperature Dewpoint
-22°C / -8°F -25°C / -13°F
Humidity Altimeter Pressure
77% 29.88" Hg 1012.1 hPa